createdAt,value
2022-11-28T00:01:34.041Z,15.73
2022-11-28T00:04:02.248Z,15.82
2022-11-28T00:06:30.583Z,16.00
2022-11-28T00:08:59.465Z,15.05
2022-11-28T00:11:27.430Z,15.52
2022-11-28T00:13:55.230Z,16.48
2022-11-28T00:16:24.043Z,15.60
2022-11-28T00:18:53.588Z,15.80
2022-11-28T00:21:21.611Z,14.90
2022-11-28T00:23:49.892Z,16.08
2022-11-28T00:26:23.106Z,15.25
2022-11-28T00:28:50.971Z,14.85
2022-11-28T00:31:22.184Z,15.30
2022-11-28T00:33:50.304Z,15.85
2022-11-28T00:36:18.833Z,15.18
2022-11-28T00:38:46.679Z,15.40
2022-11-28T00:41:19.925Z,15.20
2022-11-28T00:43:48.432Z,14.80
2022-11-28T00:46:16.708Z,14.57
2022-11-28T00:48:44.517Z,15.85
2022-11-28T00:51:13.723Z,14.20
2022-11-28T00:53:42.632Z,15.30
2022-11-28T00:56:14.720Z,14.68
2022-11-28T00:58:43.608Z,15.02
2022-11-28T01:01:16.947Z,14.20
2022-11-28T01:03:47.653Z,14.85
2022-11-28T01:06:33.440Z,14.07
2022-11-28T01:09:04.798Z,14.77
2022-11-28T01:11:32.929Z,14.48
2022-11-28T01:14:01.986Z,14.80
2022-11-28T01:16:29.452Z,13.80
2022-11-28T01:18:57.683Z,14.63
2022-11-28T01:21:26.304Z,13.50
2022-11-28T01:23:53.940Z,13.77
2022-11-28T01:26:24.471Z,13.68
2022-11-28T01:28:52.345Z,13.48
2022-11-28T01:31:23.644Z,14.15
2022-11-28T01:33:52.144Z,13.60
2022-11-28T01:36:20.816Z,13.55
2022-11-28T01:38:49.209Z,13.40
2022-11-28T01:41:19.409Z,14.60
2022-11-28T01:44:07.851Z,13.43
2022-11-28T01:46:36.264Z,13.85
2022-11-28T01:49:28.001Z,13.07
2022-11-28T01:52:02.901Z,12.23
2022-11-28T01:54:33.095Z,13.30
2022-11-28T01:57:03.392Z,13.77
2022-11-28T01:59:35.478Z,13.18
2022-11-28T02:02:09.463Z,13.32
2022-11-28T02:04:37.545Z,13.85
2022-11-28T02:07:05.095Z,13.60
2022-11-28T02:09:32.719Z,13.10
2022-11-28T02:12:09.819Z,12.88
2022-11-28T02:14:42.746Z,12.95
2022-11-28T02:17:15.999Z,12.82
2022-11-28T02:20:20.487Z,12.35
2022-11-28T02:23:09.568Z,12.77
2022-11-28T02:25:52.560Z,12.15
2022-11-28T02:28:41.364Z,13.15
2022-11-28T02:31:42.043Z,12.60
2022-11-28T02:34:27.749Z,12.15
2022-11-28T02:37:05.832Z,12.57
2022-11-28T02:40:01.153Z,12.63
2022-11-28T02:42:50.644Z,12.43
2022-11-28T02:45:37.188Z,12.63
2022-11-28T02:48:13.829Z,11.98
2022-11-28T02:51:06.276Z,11.55
2022-11-28T02:53:34.979Z,11.00
2022-11-28T02:56:02.761Z,12.38
2022-11-28T02:58:30.322Z,11.48
2022-11-28T03:00:57.810Z,11.70
2022-11-28T03:03:33.185Z,12.02
2022-11-28T03:06:31.424Z,11.13
2022-11-28T03:09:05.507Z,11.30
2022-11-28T03:12:00.713Z,11.68
2022-11-28T03:14:29.556Z,11.68
2022-11-28T03:17:17.280Z,10.70
2022-11-28T03:20:07.499Z,10.95
2022-11-28T03:22:51.448Z,11.15
2022-11-28T03:25:58.000Z,12.05
2022-11-28T03:31:16.706Z,10.25
2022-11-28T03:33:50.656Z,11.68
2022-11-28T03:36:25.248Z,10.82
2022-11-28T03:39:01.787Z,11.07
2022-11-28T03:41:57.030Z,11.18
2022-11-28T03:44:31.635Z,11.10
2022-11-28T03:47:02.079Z,10.48
2022-11-28T03:49:35.126Z,9.80
2022-11-28T03:52:06.116Z,10.23
2022-11-28T03:54:40.128Z,10.63
2022-11-28T03:57:34.588Z,10.30
2022-11-28T04:00:11.104Z,10.65
2022-11-28T04:03:15.981Z,10.50
2022-11-28T04:06:02.069Z,10.35
2022-11-28T04:08:42.207Z,10.50
2022-11-28T04:11:16.900Z,10.27
2022-11-28T04:13:50.349Z,9.90
2022-11-28T04:16:24.750Z,9.40
2022-11-28T04:19:30.443Z,9.25
2022-11-28T04:22:01.764Z,9.97
2022-11-28T04:24:41.525Z,9.50
2022-11-28T04:27:14.583Z,9.60
2022-11-28T04:29:56.292Z,9.65
2022-11-28T04:32:25.501Z,9.45
2022-11-28T04:34:59.552Z,9.70
2022-11-28T04:37:28.548Z,8.85
2022-11-28T04:39:56.720Z,9.38
2022-11-28T04:42:32.806Z,9.88
2022-11-28T04:45:08.464Z,9.73
2022-11-28T04:47:36.020Z,9.88
2022-11-28T04:50:04.098Z,9.20
2022-11-28T04:52:46.334Z,8.90
2022-11-28T04:55:33.501Z,8.85
2022-11-28T04:58:05.627Z,8.07
2022-11-28T05:00:35.374Z,8.52
2022-11-28T05:03:04.345Z,9.55
2022-11-28T05:05:31.801Z,8.55
2022-11-28T05:07:59.629Z,8.40
2022-11-28T05:10:27.054Z,8.90
2022-11-28T05:12:54.580Z,8.63
2022-11-28T05:15:21.912Z,8.63
2022-11-28T05:17:49.452Z,9.05
2022-11-28T05:20:17.148Z,9.25
2022-11-28T05:22:44.655Z,7.93
2022-11-28T05:25:12.477Z,8.23
2022-11-28T05:27:40.096Z,8.18
2022-11-28T05:30:08.213Z,8.90
2022-11-28T05:32:36.468Z,8.45
2022-11-28T05:35:04.847Z,8.32
2022-11-28T05:37:33.348Z,8.40
2022-11-28T05:40:00.651Z,8.57
2022-11-28T05:42:31.708Z,8.05
2022-11-28T05:44:59.000Z,8.63
2022-11-28T05:47:26.627Z,8.65
2022-11-28T05:49:53.909Z,8.63
2022-11-28T05:52:21.511Z,8.43
2022-11-28T05:54:49.140Z,8.43
2022-11-28T05:57:16.834Z,7.88
2022-11-28T05:59:44.383Z,7.93
2022-11-28T06:02:12.455Z,8.32
2022-11-28T06:04:41.989Z,8.27
2022-11-28T06:07:09.756Z,7.80
2022-11-28T06:09:37.237Z,9.00
2022-11-28T06:12:06.168Z,7.90
2022-11-28T06:14:34.298Z,8.43
2022-11-28T06:17:02.610Z,8.35
2022-11-28T06:19:29.927Z,8.68
2022-11-28T06:21:57.446Z,8.85
2022-11-28T06:24:24.799Z,7.97
2022-11-28T06:26:52.459Z,8.05
2022-11-28T06:29:19.765Z,7.93
2022-11-28T06:31:47.473Z,7.93
2022-11-28T06:34:14.841Z,7.95
2022-11-28T06:36:44.037Z,8.88
2022-11-28T06:39:15.974Z,8.27
2022-11-28T06:41:44.208Z,8.00
2022-11-28T06:44:15.826Z,8.27
2022-11-28T06:46:44.012Z,9.13
2022-11-28T06:49:15.083Z,9.20
2022-11-28T06:51:43.336Z,8.30
2022-11-28T06:54:10.616Z,9.52
2022-11-28T06:56:41.047Z,9.07
2022-11-28T06:59:11.868Z,8.50
2022-11-28T07:01:39.562Z,8.55
2022-11-28T07:04:06.837Z,8.25
2022-11-28T07:06:34.887Z,9.00
2022-11-28T07:09:02.484Z,8.45
2022-11-28T07:11:31.793Z,8.80
2022-11-28T07:14:01.462Z,9.20
2022-11-28T07:16:31.817Z,8.25
2022-11-28T07:19:00.470Z,8.60
2022-11-28T07:21:29.081Z,8.25
2022-11-28T07:23:58.255Z,8.93
2022-11-28T07:26:25.927Z,9.07
2022-11-28T07:28:55.884Z,8.68
2022-11-28T07:31:31.786Z,8.38
2022-11-28T07:34:01.173Z,8.57
2022-11-28T07:36:30.271Z,8.25
2022-11-28T07:38:59.804Z,8.43
2022-11-28T07:41:28.390Z,8.32
2022-11-28T07:44:01.620Z,8.32
2022-11-28T07:46:31.076Z,8.70
2022-11-28T07:48:58.885Z,8.45
2022-11-28T07:51:29.841Z,8.63
2022-11-28T07:53:58.070Z,8.10
2022-11-28T07:56:39.365Z,8.50
2022-11-28T07:59:12.062Z,9.13
2022-11-28T08:01:39.665Z,8.80
2022-11-28T08:04:09.115Z,8.30
2022-11-28T08:06:39.596Z,8.30
2022-11-28T08:09:07.668Z,8.13
2022-11-28T08:11:35.881Z,7.97
2022-11-28T08:14:03.567Z,8.57
2022-11-28T08:16:31.756Z,8.07
2022-11-28T08:19:02.835Z,8.45
2022-11-28T08:21:32.931Z,8.20
2022-11-28T08:24:02.018Z,8.32
2022-11-28T08:26:31.461Z,8.73
2022-11-28T08:29:00.697Z,8.63
2022-11-28T08:31:33.819Z,8.60
2022-11-28T08:34:03.281Z,8.07
2022-11-28T08:36:31.114Z,8.32
2022-11-28T08:39:17.076Z,8.50
2022-11-28T08:41:50.881Z,9.32
2022-11-28T08:44:18.182Z,8.27
2022-11-28T08:46:46.205Z,8.05
2022-11-28T08:49:13.507Z,8.18
2022-11-28T08:51:42.175Z,8.55
2022-11-28T08:54:09.538Z,8.60
2022-11-28T08:56:37.381Z,8.55
2022-11-28T08:59:04.709Z,8.20
2022-11-28T09:01:32.409Z,8.77
2022-11-28T09:04:00.241Z,8.23
2022-11-28T09:06:27.943Z,9.05
2022-11-28T09:08:55.249Z,9.07
2022-11-28T09:11:23.538Z,9.13
2022-11-28T09:13:51.238Z,8.80
2022-11-28T09:16:18.829Z,8.85
2022-11-28T09:18:46.156Z,9.35
2022-11-28T09:21:15.248Z,8.35
2022-11-28T09:23:44.718Z,8.57
2022-11-28T09:26:15.808Z,9.07
2022-11-28T09:28:43.776Z,8.65
2022-11-28T09:31:15.133Z,9.43
2022-11-28T09:33:43.558Z,8.98
2022-11-28T09:36:13.653Z,9.70
2022-11-28T09:38:41.606Z,8.43
2022-11-28T09:41:39.761Z,8.82
2022-11-28T09:44:16.869Z,8.10
2022-11-28T09:46:46.397Z,9.00
2022-11-28T09:49:28.656Z,8.30
2022-11-28T09:52:09.859Z,9.02
2022-11-28T09:54:50.308Z,8.98
2022-11-28T09:57:40.830Z,8.65
2022-11-28T10:00:24.312Z,8.63
2022-11-28T10:02:57.911Z,8.80
2022-11-28T10:05:36.115Z,8.68
2022-11-28T10:08:50.295Z,8.65
2022-11-28T10:12:14.110Z,8.93
2022-11-28T10:15:09.921Z,8.45
2022-11-28T10:17:50.407Z,8.52
2022-11-28T10:20:46.512Z,9.10
2022-11-28T10:23:40.423Z,8.85
2022-11-28T10:26:28.264Z,8.73
2022-11-28T10:28:58.039Z,8.57
2022-11-28T10:31:33.289Z,9.38
2022-11-28T10:34:29.809Z,8.40
2022-11-28T10:37:03.191Z,8.70
2022-11-28T10:39:30.484Z,9.45
2022-11-28T10:42:13.697Z,8.73
2022-11-28T10:45:08.480Z,8.52
2022-11-28T10:48:37.113Z,8.65
2022-11-28T10:51:15.635Z,8.48
2022-11-28T10:54:04.631Z,8.82
2022-11-28T10:57:16.225Z,8.43
2022-11-28T11:00:30.029Z,8.75
2022-11-28T11:03:02.316Z,8.50
2022-11-28T11:05:33.562Z,8.73
2022-11-28T11:08:19.077Z,8.43
2022-11-28T11:11:24.835Z,8.85
2022-11-28T11:14:02.605Z,8.70
2022-11-28T11:16:52.622Z,8.38
2022-11-28T11:19:31.587Z,8.48
2022-11-28T11:22:02.397Z,8.60
2022-11-28T11:24:30.152Z,8.65
2022-11-28T11:27:18.050Z,8.63
2022-11-28T11:29:48.207Z,8.63
2022-11-28T11:32:29.768Z,8.57
2022-11-28T11:34:59.040Z,8.73
2022-11-28T11:37:37.147Z,8.73
2022-11-28T11:40:24.576Z,8.98
2022-11-28T11:43:00.278Z,9.38
2022-11-28T11:45:34.376Z,9.18
2022-11-28T11:48:03.952Z,8.52
2022-11-28T11:50:32.995Z,8.73
2022-11-28T11:53:00.711Z,8.98
2022-11-28T11:55:30.709Z,8.60
2022-11-28T11:58:05.621Z,8.75
2022-11-28T12:03:23.306Z,8.20
2022-11-28T12:06:13.633Z,9.38
2022-11-28T12:08:50.525Z,8.15
2022-11-28T12:11:29.334Z,8.60
2022-11-28T12:14:14.804Z,8.32
2022-11-28T12:19:49.243Z,8.18
2022-11-28T12:22:22.760Z,8.40
2022-11-28T12:24:56.102Z,8.23
2022-11-28T12:27:47.821Z,8.88
2022-11-28T12:30:25.436Z,8.07
2022-11-28T12:33:14.576Z,8.00
2022-11-28T12:35:49.351Z,9.35
2022-11-28T12:38:28.455Z,8.18
2022-11-28T12:41:14.911Z,8.55
2022-11-28T12:44:02.164Z,8.75
2022-11-28T12:46:46.474Z,8.30
2022-11-28T12:49:28.362Z,9.10
2022-11-28T12:52:05.357Z,7.93
2022-11-28T12:55:04.520Z,8.77
2022-11-28T12:57:59.530Z,8.13
2022-11-28T13:00:29.185Z,7.97
2022-11-28T13:03:08.862Z,8.52
2022-11-28T13:06:08.829Z,8.13
2022-11-28T13:08:57.718Z,8.65
2022-11-28T13:12:08.851Z,8.30
2022-11-28T13:14:48.111Z,9.10
2022-11-28T13:17:21.857Z,9.02
2022-11-28T13:20:25.436Z,9.20
2022-11-28T13:23:14.912Z,9.07
2022-11-28T13:26:00.768Z,9.05
2022-11-28T13:28:36.192Z,9.23
2022-11-28T13:31:27.436Z,9.07
2022-11-28T13:33:56.316Z,9.30
2022-11-28T13:39:54.602Z,8.82
2022-11-28T13:43:04.441Z,9.05
2022-11-28T13:45:47.445Z,9.25
2022-11-28T13:48:57.343Z,8.85
2022-11-28T13:51:30.506Z,9.40
2022-11-28T13:54:17.213Z,9.45
2022-11-28T13:56:46.319Z,8.82
2022-11-28T13:59:21.750Z,9.00
2022-11-28T14:01:57.594Z,9.52
2022-11-28T14:04:27.855Z,9.10
2022-11-28T14:07:03.277Z,9.02
2022-11-28T14:10:05.312Z,9.88
2022-11-28T14:12:55.337Z,9.35
2022-11-28T14:16:01.724Z,9.10
2022-11-28T14:18:57.161Z,9.68
2022-11-28T14:21:56.480Z,8.38
2022-11-28T14:24:42.298Z,8.88
2022-11-28T14:27:21.057Z,8.65
2022-11-28T14:29:51.930Z,9.55
2022-11-28T14:32:39.431Z,9.30
2022-11-28T14:35:16.650Z,9.23
2022-11-28T14:37:52.969Z,8.95
2022-11-28T14:40:59.753Z,8.60
2022-11-28T14:43:29.721Z,8.75
2022-11-28T14:46:15.392Z,9.27
2022-11-28T14:48:58.421Z,9.30
2022-11-28T14:51:44.309Z,9.40
2022-11-28T14:54:29.890Z,8.25
2022-11-28T14:56:59.957Z,8.57
2022-11-28T14:59:32.885Z,8.25
2022-11-28T15:02:12.407Z,8.40
2022-11-28T15:05:01.679Z,8.52
2022-11-28T15:07:47.754Z,7.95
2022-11-28T15:10:24.151Z,9.25
2022-11-28T15:12:57.381Z,8.73
2022-11-28T15:15:25.049Z,9.27
2022-11-28T15:17:54.063Z,8.10
2022-11-28T15:20:35.772Z,8.55
2022-11-28T15:23:03.606Z,8.57
2022-11-28T15:25:37.136Z,7.97
2022-11-28T15:28:18.530Z,8.30
2022-11-28T15:30:51.641Z,8.35
2022-11-28T15:33:20.508Z,7.95
2022-11-28T15:36:15.013Z,7.72
2022-11-28T15:38:43.533Z,7.45
2022-11-28T15:41:11.317Z,7.97
2022-11-28T15:43:44.343Z,7.70
2022-11-28T15:46:19.039Z,7.60
2022-11-28T15:48:52.369Z,8.35
2022-11-28T15:51:32.735Z,8.25
2022-11-28T15:54:03.287Z,7.50
2022-11-28T15:56:31.280Z,7.72
2022-11-28T15:58:58.646Z,7.80
2022-11-28T16:01:27.878Z,8.13
2022-11-28T16:04:13.569Z,7.55
2022-11-28T16:06:43.900Z,7.65
2022-11-28T16:09:17.288Z,7.40
2022-11-28T16:11:48.266Z,7.00
2022-11-28T16:14:23.955Z,7.40
2022-11-28T16:16:51.748Z,7.38
2022-11-28T16:19:39.711Z,7.40
2022-11-28T16:22:17.130Z,7.53
2022-11-28T16:24:46.860Z,7.78
2022-11-28T16:27:34.432Z,7.13
2022-11-28T16:30:32.905Z,7.35
2022-11-28T16:33:01.158Z,7.20
2022-11-28T16:35:33.197Z,7.53
2022-11-28T16:38:16.321Z,7.65
2022-11-28T16:40:44.532Z,7.50
2022-11-28T16:43:25.847Z,7.80
2022-11-28T16:46:01.464Z,7.07
2022-11-28T16:48:33.229Z,7.13
2022-11-28T16:51:12.774Z,7.57
2022-11-28T16:54:29.777Z,7.43
2022-11-28T16:59:35.151Z,7.00
2022-11-28T17:02:02.433Z,7.20
2022-11-28T17:04:30.959Z,7.57
2022-11-28T17:07:05.136Z,7.25
2022-11-28T17:09:33.865Z,6.60
2022-11-28T17:12:39.487Z,7.30
2022-11-28T17:17:37.997Z,6.85
2022-11-28T17:20:06.468Z,7.25
2022-11-28T17:22:41.022Z,6.90
2022-11-28T17:25:17.784Z,7.32
2022-11-28T17:27:45.327Z,6.40
2022-11-28T17:30:17.083Z,6.97
2022-11-28T17:32:47.074Z,7.03
2022-11-28T17:35:22.112Z,7.15
2022-11-28T17:37:49.520Z,6.97
2022-11-28T17:40:36.927Z,7.13
2022-11-28T17:43:05.113Z,7.13
2022-11-28T17:45:35.490Z,7.63
2022-11-28T17:48:02.873Z,7.40
2022-11-28T17:50:30.493Z,7.05
2022-11-28T17:52:57.781Z,7.63
2022-11-28T17:55:25.468Z,8.02
2022-11-28T17:57:54.065Z,6.78
2022-11-28T18:00:21.809Z,8.00
2022-11-28T18:02:49.112Z,7.65
2022-11-28T18:05:16.956Z,7.50
2022-11-28T18:07:44.375Z,7.72
2022-11-28T18:10:12.246Z,8.13
2022-11-28T18:12:39.575Z,7.75
2022-11-28T18:15:07.455Z,7.20
2022-11-28T18:17:34.721Z,7.47
2022-11-28T18:20:02.220Z,7.85
2022-11-28T18:22:29.559Z,7.90
2022-11-28T18:24:57.084Z,7.88
2022-11-28T18:27:24.484Z,7.65
2022-11-28T18:29:53.014Z,8.00
2022-11-28T18:32:20.337Z,7.75
2022-11-28T18:34:47.931Z,7.70
2022-11-28T18:37:15.234Z,7.65
2022-11-28T18:39:43.034Z,7.93
2022-11-28T18:42:10.726Z,8.00
2022-11-28T18:44:39.127Z,8.40
2022-11-28T18:47:06.548Z,8.10
2022-11-28T18:49:34.642Z,8.15
2022-11-28T18:52:01.944Z,7.55
2022-11-28T18:54:31.049Z,8.07
2022-11-28T18:57:00.051Z,7.93
2022-11-28T18:59:27.700Z,8.43
2022-11-28T19:01:55.784Z,8.23
2022-11-28T19:04:23.602Z,8.80
2022-11-28T19:06:51.703Z,8.40
2022-11-28T19:09:19.525Z,8.55
2022-11-28T19:11:47.108Z,7.95
2022-11-28T19:14:17.060Z,8.90
2022-11-28T19:16:45.623Z,8.65
2022-11-28T19:19:13.380Z,8.52
2022-11-28T19:21:40.664Z,8.40
2022-11-28T19:24:08.508Z,8.38
2022-11-28T19:26:37.221Z,8.15
2022-11-28T19:29:05.748Z,8.68
2022-11-28T19:31:34.860Z,8.18
2022-11-28T19:34:12.615Z,9.05
2022-11-28T19:36:48.578Z,9.15
2022-11-28T19:39:22.330Z,9.13
2022-11-28T19:41:53.555Z,9.70
2022-11-28T19:44:23.924Z,8.60
2022-11-28T19:46:52.779Z,9.25
2022-11-28T19:49:23.633Z,9.45
2022-11-28T19:51:52.279Z,8.73
2022-11-28T19:54:20.285Z,10.18
2022-11-28T19:56:48.236Z,9.70
2022-11-28T19:59:16.700Z,9.70
2022-11-28T20:01:44.383Z,10.63
2022-11-28T20:04:12.085Z,9.82
2022-11-28T20:06:40.084Z,10.63
2022-11-28T20:09:10.568Z,10.65
2022-11-28T20:11:38.572Z,11.30
2022-11-28T20:14:12.008Z,10.77
2022-11-28T20:16:40.097Z,10.88
2022-11-28T20:19:07.920Z,12.07
2022-11-28T20:21:35.554Z,11.07
2022-11-28T20:24:07.399Z,10.93
2022-11-28T20:26:38.292Z,11.13
2022-11-28T20:29:06.728Z,11.65
2022-11-28T20:31:41.995Z,11.52
2022-11-28T20:34:09.707Z,12.70
2022-11-28T20:36:37.228Z,11.77
2022-11-28T20:39:05.629Z,12.15
2022-11-28T20:41:33.807Z,12.65
2022-11-28T20:44:02.112Z,12.75
2022-11-28T20:46:32.079Z,12.05
2022-11-28T20:49:02.339Z,13.43
2022-11-28T20:51:31.530Z,13.45
2022-11-28T20:54:00.047Z,13.32
2022-11-28T20:56:30.112Z,13.00
2022-11-28T20:59:00.552Z,13.20
2022-11-28T21:01:33.042Z,13.38
2022-11-28T21:04:04.378Z,13.65
2022-11-28T21:06:32.841Z,13.57
2022-11-28T21:09:00.471Z,14.45
2022-11-28T21:14:15.539Z,13.35
2022-11-28T21:16:43.775Z,13.95
2022-11-28T21:19:12.667Z,14.93
2022-11-28T21:21:40.781Z,14.25
2022-11-28T21:24:11.822Z,15.48
2022-11-28T21:26:44.181Z,15.00
2022-11-28T21:29:15.600Z,14.80
2022-11-28T21:31:44.970Z,14.93
2022-11-28T21:34:17.538Z,14.60
2022-11-28T21:36:45.349Z,14.82
2022-11-28T21:39:15.826Z,15.82
2022-11-28T21:41:43.370Z,14.52
2022-11-28T21:44:10.990Z,15.65
2022-11-28T21:46:38.300Z,15.55
2022-11-28T21:49:05.961Z,14.80
2022-11-28T21:51:33.687Z,15.27
2022-11-28T21:54:02.289Z,15.30
2022-11-28T21:56:29.942Z,15.30
2022-11-28T21:58:57.584Z,15.15
2022-11-28T22:01:24.989Z,14.45
2022-11-28T22:03:53.576Z,14.40
2022-11-28T22:06:24.882Z,14.98
2022-11-28T22:08:53.713Z,15.00
2022-11-28T22:11:21.420Z,15.68
2022-11-28T22:13:49.611Z,15.23
2022-11-28T22:16:18.477Z,15.32
2022-11-28T22:18:47.412Z,15.48
2022-11-28T22:24:06.431Z,15.00
2022-11-28T22:26:34.038Z,15.60
2022-11-28T22:29:03.864Z,14.45
2022-11-28T22:31:31.902Z,15.73
2022-11-28T22:33:59.983Z,15.68
2022-11-28T22:36:27.278Z,15.85
2022-11-28T22:38:56.764Z,16.75
2022-11-28T22:41:28.856Z,15.38
2022-11-28T22:43:59.612Z,15.80
2022-11-28T22:46:27.203Z,15.45
2022-11-28T22:48:54.961Z,15.85
2022-11-28T22:51:24.638Z,15.50
2022-11-28T22:53:56.655Z,16.42
2022-11-28T22:56:24.756Z,15.68
2022-11-28T22:58:52.342Z,16.05
2022-11-28T23:01:25.810Z,16.35
2022-11-28T23:03:55.254Z,15.30
2022-11-28T23:06:26.947Z,16.77
2022-11-28T23:08:56.677Z,16.27
2022-11-28T23:11:26.313Z,15.48
2022-11-28T23:13:54.417Z,16.73
2022-11-28T23:16:28.423Z,16.15
2022-11-28T23:18:58.401Z,16.85
2022-11-28T23:21:29.809Z,16.38
2022-11-28T23:23:57.734Z,16.30
2022-11-28T23:26:27.554Z,15.68
2022-11-28T23:28:55.573Z,16.85
2022-11-28T23:31:25.701Z,15.88
2022-11-28T23:33:53.668Z,15.30
2022-11-28T23:36:26.518Z,16.27
2022-11-28T23:38:56.500Z,16.40
2022-11-28T23:41:25.324Z,15.48
2022-11-28T23:43:53.012Z,17.13
2022-11-28T23:46:23.214Z,16.30
2022-11-28T23:48:51.291Z,16.00
2022-11-28T23:51:20.691Z,16.60
2022-11-28T23:53:49.871Z,16.63
2022-11-28T23:56:26.152Z,15.05
2022-11-28T23:58:54.645Z,16.33
